createdAt,value
2022-11-07T00:00:58.311Z,-11129.59
2022-11-07T00:04:04.812Z,-11123.69
2022-11-07T00:07:12.906Z,-11119.75
2022-11-07T00:10:19.169Z,-11118.34
2022-11-07T00:13:27.465Z,-11125.66
2022-11-07T00:16:34.093Z,-11123.81
2022-11-07T00:19:40.125Z,-11130.13
2022-11-07T00:22:47.847Z,-11121.44
2022-11-07T00:25:54.193Z,-11118.34
2022-11-07T00:29:00.365Z,-11111.31
2022-11-07T00:32:06.975Z,-11130.56
2022-11-07T00:35:13.073Z,-11111.59
2022-11-07T00:38:20.605Z,-11127.63
2022-11-07T00:41:26.866Z,-11130.97
2022-11-07T00:44:32.634Z,-11132.81
2022-11-07T00:47:38.647Z,-11132.66
2022-11-07T00:50:44.918Z,-11122.84
2022-11-07T00:53:53.114Z,-11135.34
2022-11-07T00:56:59.115Z,-11123.25
2022-11-07T01:00:05.814Z,-11114.41
2022-11-07T01:03:44.161Z,-11113.00
2022-11-07T01:06:50.975Z,-11108.78
2022-11-07T01:09:58.777Z,-11099.25
2022-11-07T01:13:04.947Z,-11093.78
2022-11-07T01:16:11.492Z,-11091.38
2022-11-07T01:19:19.004Z,-11095.03
2022-11-07T01:22:25.190Z,-11107.13
2022-11-07T01:25:33.083Z,-11108.66
2022-11-07T01:28:39.988Z,-11107.97
2022-11-07T01:31:46.661Z,-11112.44
2022-11-07T01:34:52.757Z,-11121.16
2022-11-07T01:37:58.504Z,-11129.59
2022-11-07T01:41:25.702Z,-11124.38
2022-11-07T01:44:57.155Z,-11129.03
2022-11-07T01:48:03.858Z,-11111.03
2022-11-07T01:51:10.121Z,-11117.22
2022-11-07T01:54:20.859Z,-11126.34
2022-11-07T01:57:32.111Z,-11140.25
2022-11-07T02:00:38.685Z,-11133.50
2022-11-07T02:03:47.319Z,-11139.41
2022-11-07T02:06:59.705Z,-11142.50
2022-11-07T02:10:07.535Z,-11121.44
2022-11-07T02:13:21.186Z,-11134.78
2022-11-07T02:16:27.973Z,-11133.09
2022-11-07T02:19:37.267Z,-11135.06
2022-11-07T02:22:51.153Z,-11120.88
2022-11-07T02:25:59.272Z,-11109.50
2022-11-07T02:29:10.472Z,-11109.78
2022-11-07T02:32:16.802Z,-11118.06
2022-11-07T02:35:36.878Z,-11137.16
2022-11-07T02:38:43.596Z,-11129.59
2022-11-07T02:41:52.898Z,-11126.50
2022-11-07T02:44:59.433Z,-11112.72
2022-11-07T02:48:06.138Z,-11124.38
2022-11-07T02:51:12.552Z,-11131.81
2022-11-07T02:54:18.554Z,-11123.69
2022-11-07T02:57:25.815Z,-11123.97
2022-11-07T03:00:31.963Z,-11107.97
2022-11-07T03:03:40.533Z,-11109.06
2022-11-07T03:06:46.448Z,-11119.03
2022-11-07T03:09:52.608Z,-11123.97
2022-11-07T03:12:59.858Z,-11126.91
2022-11-07T03:16:07.151Z,-11130.41
2022-11-07T03:19:13.418Z,-11121.44
2022-11-07T03:22:19.540Z,-11131.25
2022-11-07T03:25:25.611Z,-11131.81
2022-11-07T03:28:33.328Z,-11136.03
2022-11-07T03:31:39.583Z,-11118.19
2022-11-07T03:34:45.838Z,-11122.69
2022-11-07T03:37:52.137Z,-11129.88
2022-11-07T03:40:58.152Z,-11113.28
2022-11-07T03:44:05.609Z,-11115.81
2022-11-07T03:47:11.624Z,-11098.69
2022-11-07T03:50:20.190Z,-11098.97
2022-11-07T03:53:26.809Z,-11104.88
2022-11-07T03:56:33.565Z,-11096.00
2022-11-07T03:59:41.296Z,-11104.44
2022-11-07T04:02:47.867Z,-11098.25
2022-11-07T04:05:53.959Z,-11111.31
2022-11-07T04:08:59.975Z,-11107.97
2022-11-07T04:12:24.363Z,-11117.09
2022-11-07T04:15:48.848Z,-11116.25
2022-11-07T04:18:54.717Z,-11117.38
2022-11-07T04:22:00.739Z,-11106.41
2022-11-07T04:25:07.716Z,-11110.75
2022-11-07T04:28:12.700Z,-11116.66
2022-11-07T04:31:20.261Z,-11110.91
2022-11-07T04:34:26.361Z,-11110.63
2022-11-07T04:37:32.333Z,-11113.16
2022-11-07T04:40:38.665Z,-11118.19
2022-11-07T04:43:44.990Z,-11122.56
2022-11-07T04:46:52.450Z,-11124.53
2022-11-07T04:49:59.295Z,-11123.13
2022-11-07T04:53:05.946Z,-11122.13
2022-11-07T04:56:12.276Z,-11124.53
2022-11-07T04:59:19.629Z,-11125.50
2022-11-07T05:02:27.613Z,-11111.19
2022-11-07T05:05:34.061Z,-11122.84
2022-11-07T05:08:40.122Z,-11112.72
2022-11-07T05:11:46.253Z,-11110.19
2022-11-07T05:14:52.232Z,-11114.56
2022-11-07T05:17:59.706Z,-11125.94
2022-11-07T05:21:06.213Z,-11123.41
2022-11-07T05:24:12.727Z,-11126.06
2022-11-07T05:27:19.819Z,-11118.75
2022-11-07T05:30:26.110Z,-11127.06
2022-11-07T05:33:33.488Z,-11126.78
2022-11-07T05:36:39.686Z,-11129.03
2022-11-07T05:39:45.743Z,-11129.31
2022-11-07T05:42:53.511Z,-11122.41
2022-11-07T05:46:03.190Z,-11119.75
2022-11-07T05:49:16.375Z,-11122.69
2022-11-07T05:52:25.723Z,-11105.84
2022-11-07T05:55:35.362Z,-11117.50
2022-11-07T05:58:42.091Z,-11131.41
2022-11-07T06:01:51.192Z,-11111.03
2022-11-07T06:04:59.034Z,-11124.38
2022-11-07T06:08:05.697Z,-11120.59
2022-11-07T06:11:12.195Z,-11118.91
2022-11-07T06:14:18.588Z,-11116.38
2022-11-07T06:17:24.855Z,-11132.81
2022-11-07T06:20:32.357Z,-11146.44
2022-11-07T06:23:39.938Z,-11152.91
2022-11-07T06:26:46.842Z,-11159.78
2022-11-07T06:29:53.175Z,-11167.53
2022-11-07T06:33:02.610Z,-11151.78
2022-11-07T06:36:12.925Z,-11165.41
2022-11-07T06:39:19.213Z,-11170.06
2022-11-07T06:42:27.249Z,-11187.63
2022-11-07T06:45:33.380Z,-11206.03
2022-11-07T06:48:39.741Z,-11210.25
2022-11-07T06:51:48.105Z,-11195.06
2022-11-07T06:54:54.388Z,-11192.25
2022-11-07T06:58:01.305Z,-11215.19
2022-11-07T07:01:09.966Z,-11216.72
2022-11-07T07:04:16.153Z,-11220.81
2022-11-07T07:07:23.632Z,-11225.16
2022-11-07T07:10:30.081Z,-11228.13
2022-11-07T07:13:36.999Z,-11229.37
2022-11-07T07:16:43.090Z,-11228.41
2022-11-07T07:19:48.969Z,-11227.00
2022-11-07T07:23:00.248Z,-11226.84
2022-11-07T07:26:13.818Z,-11235.31
2022-11-07T07:29:20.286Z,-11247.69
2022-11-07T07:32:27.093Z,-11246.00
2022-11-07T07:35:33.450Z,-11245.72
2022-11-07T07:38:41.526Z,-11251.63
2022-11-07T07:41:50.180Z,-11256.41
2022-11-07T07:44:56.759Z,-11249.66
2022-11-07T07:48:03.337Z,-11268.22
2022-11-07T07:51:09.839Z,-11265.13
2022-11-07T07:54:17.616Z,-11260.06
2022-11-07T07:57:23.739Z,-11267.53
2022-11-07T08:00:30.006Z,-11269.50
2022-11-07T08:03:59.658Z,-11277.22
2022-11-07T08:07:01.915Z,-11282.28
2022-11-07T08:10:39.447Z,-11280.59
2022-11-07T08:13:36.651Z,-11295.09
2022-11-07T08:16:42.774Z,-11304.97
2022-11-07T08:19:48.909Z,-11283.69
2022-11-07T08:23:02.431Z,-11303.97
2022-11-07T08:26:10.203Z,-11301.16
2022-11-07T08:29:16.607Z,-11290.47
2022-11-07T08:32:22.914Z,-11307.91
2022-11-07T08:35:28.976Z,-11315.38
2022-11-07T08:38:36.875Z,-11307.06
2022-11-07T08:41:44.424Z,-11313.56
2022-11-07T08:44:50.835Z,-11322.56
2022-11-07T08:48:00.847Z,-11334.66
2022-11-07T08:51:07.303Z,-11338.63
2022-11-07T08:54:13.541Z,-11338.34
2022-11-07T08:57:21.015Z,-11342.56
2022-11-07T09:00:27.343Z,-11348.47
2022-11-07T09:03:54.612Z,-11363.69
2022-11-07T09:06:59.782Z,-11357.78
2022-11-07T09:10:06.427Z,-11358.47
2022-11-07T09:13:15.275Z,-11360.31
2022-11-07T09:16:22.988Z,-11375.09
2022-11-07T09:19:29.488Z,-11383.69
2022-11-07T09:23:19.519Z,-11397.38
2022-11-07T09:26:26.761Z,-11376.09
2022-11-07T09:29:34.545Z,-11383.13
2022-11-07T09:32:45.597Z,-11381.16
2022-11-07T09:35:52.207Z,-11387.34
2022-11-07T09:38:59.305Z,-11393.13
2022-11-07T09:42:14.647Z,-11403.16
2022-11-07T09:45:22.283Z,-11398.78
2022-11-07T09:48:39.938Z,-11398.06
2022-11-07T09:51:51.628Z,-11415.25
2022-11-07T09:55:02.649Z,-11419.06
2022-11-07T09:58:17.206Z,-11431.91
2022-11-07T10:01:25.843Z,-11411.88
2022-11-07T10:04:32.116Z,-11419.78
2022-11-07T10:07:47.019Z,-11423.88
2022-11-07T10:10:58.887Z,-11420.06
2022-11-07T10:14:27.196Z,-11425.56
2022-11-07T10:17:42.830Z,-11421.59
2022-11-07T10:21:10.488Z,-11425.84
2022-11-07T10:24:40.497Z,-11441.19
2022-11-07T10:27:52.083Z,-11444.31
2022-11-07T10:31:02.762Z,-11431.06
2022-11-07T10:34:19.102Z,-11441.91
2022-11-07T10:37:25.008Z,-11448.38
2022-11-07T10:40:38.617Z,-11440.91
2022-11-07T10:43:49.915Z,-11426.53
2022-11-07T10:46:56.199Z,-11416.94
2022-11-07T10:50:17.821Z,-11434.44
2022-11-07T10:53:26.824Z,-11445.44
2022-11-07T10:56:45.602Z,-11451.91
2022-11-07T10:59:57.848Z,-11470.25
2022-11-07T11:03:04.004Z,-11464.59
2022-11-07T11:06:18.300Z,-11467.72
2022-11-07T11:09:27.249Z,-11449.38
2022-11-07T11:12:35.633Z,-11447.97
2022-11-07T11:15:45.887Z,-11459.41
2022-11-07T11:18:53.182Z,-11470.25
2022-11-07T11:22:04.793Z,-11457.84
2022-11-07T11:25:19.812Z,-11444.31
2022-11-07T11:28:33.260Z,-11447.81
2022-11-07T11:31:44.640Z,-11463.34
2022-11-07T11:34:59.395Z,-11472.22
2022-11-07T11:38:15.454Z,-11480.13
2022-11-07T11:41:26.139Z,-11475.34
2022-11-07T11:44:39.027Z,-11470.38
2022-11-07T11:47:51.293Z,-11479.00
2022-11-07T11:51:01.507Z,-11480.69
2022-11-07T11:54:12.079Z,-11479.41
2022-11-07T11:57:24.406Z,-11473.91
2022-11-07T12:00:36.198Z,-11465.31
2022-11-07T12:03:57.132Z,-11465.72
2022-11-07T12:07:13.419Z,-11468.84
2022-11-07T12:10:30.477Z,-11477.31
2022-11-07T12:13:46.126Z,-11494.50
2022-11-07T12:16:58.652Z,-11482.66
2022-11-07T12:20:18.106Z,-11490.13
2022-11-07T12:23:38.774Z,-11495.22
2022-11-07T12:26:57.601Z,-11491.53
2022-11-07T12:30:16.907Z,-11492.13
2022-11-07T12:33:33.665Z,-11488.31
2022-11-07T12:36:52.766Z,-11488.59
2022-11-07T12:40:11.589Z,-11487.59
2022-11-07T12:43:31.334Z,-11489.72
2022-11-07T12:46:47.105Z,-11505.22
2022-11-07T12:50:07.141Z,-11492.13
2022-11-07T12:53:24.181Z,-11486.31
2022-11-07T12:56:34.190Z,-11487.75
2022-11-07T12:59:46.125Z,-11491.81
2022-11-07T13:03:26.436Z,-11481.25
2022-11-07T13:06:37.632Z,-11497.31
2022-11-07T13:09:53.203Z,-11490.00
2022-11-07T13:13:03.661Z,-11500.16
2022-11-07T13:16:23.550Z,-11492.25
2022-11-07T13:19:33.129Z,-11494.22
2022-11-07T13:22:41.859Z,-11492.13
2022-11-07T13:25:59.853Z,-11466.00
2022-11-07T13:29:22.754Z,-11456.44
2022-11-07T13:32:40.153Z,-11476.59
2022-11-07T13:35:55.415Z,-11478.28
2022-11-07T13:39:06.058Z,-11424.84
2022-11-07T13:42:17.315Z,-11415.25
2022-11-07T13:45:28.430Z,-11417.50
2022-11-07T13:48:47.705Z,-11409.06
2022-11-07T13:51:56.606Z,-11386.09
2022-11-07T13:55:10.188Z,-11383.00
2022-11-07T13:58:18.662Z,-11366.50
2022-11-07T14:01:24.918Z,-11361.44
2022-11-07T14:04:40.500Z,-11366.78
2022-11-07T14:08:01.232Z,-11358.91
2022-11-07T14:11:17.127Z,-11345.53
2022-11-07T14:14:25.305Z,-11341.84
2022-11-07T14:17:34.837Z,-11335.50
2022-11-07T14:20:47.775Z,-11336.66
2022-11-07T14:23:53.983Z,-11328.63
2022-11-07T14:27:02.486Z,-11326.50
2022-11-07T14:30:17.571Z,-11323.97
2022-11-07T14:33:24.332Z,-11328.19
2022-11-07T14:36:32.010Z,-11322.56
2022-11-07T14:39:39.551Z,-11318.91
2022-11-07T14:42:47.009Z,-11312.41
2022-11-07T14:46:16.596Z,-11317.91
2022-11-07T14:49:26.620Z,-11308.47
2022-11-07T14:52:38.357Z,-11311.44
2022-11-07T14:55:47.154Z,-11303.28
2022-11-07T14:58:53.208Z,-11304.41
2022-11-07T15:02:19.876Z,-11300.88
2022-11-07T15:05:28.953Z,-11299.19
2022-11-07T15:08:38.389Z,-11296.66
2022-11-07T15:11:57.641Z,-11291.88
2022-11-07T15:15:10.191Z,-11289.91
2022-11-07T15:18:27.686Z,-11289.34
2022-11-07T15:21:36.374Z,-11282.44
2022-11-07T15:24:45.959Z,-11286.94
2022-11-07T15:27:52.086Z,-11284.28
2022-11-07T15:31:00.790Z,-11276.09
2022-11-07T15:34:12.204Z,-11265.13
2022-11-07T15:37:20.447Z,-11265.56
2022-11-07T15:40:30.116Z,-11265.97
2022-11-07T15:43:36.559Z,-11265.13
2022-11-07T15:46:43.045Z,-11265.00
2022-11-07T15:49:49.732Z,-11265.69
2022-11-07T15:52:56.260Z,-11266.41
2022-11-07T15:56:08.321Z,-11261.47
2022-11-07T15:59:20.114Z,-11266.41
2022-11-07T16:02:26.347Z,-11262.03
2022-11-07T16:05:32.692Z,-11261.19
2022-11-07T16:08:40.357Z,-11262.44
2022-11-07T16:11:48.174Z,-11261.47
2022-11-07T16:14:59.335Z,-11259.50
2022-11-07T16:18:06.033Z,-11257.25
2022-11-07T16:21:12.245Z,-11256.13
2022-11-07T16:24:18.318Z,-11255.00
2022-11-07T16:27:25.699Z,-11254.28
2022-11-07T16:30:32.721Z,-11251.91
2022-11-07T16:33:39.178Z,-11249.94
2022-11-07T16:36:45.412Z,-11251.47
2022-11-07T16:39:51.456Z,-11250.50
2022-11-07T16:42:58.971Z,-11247.69
2022-11-07T16:46:06.420Z,-11246.84
2022-11-07T16:49:15.510Z,-11247.41
2022-11-07T16:52:23.009Z,-11238.94
2022-11-07T16:55:29.364Z,-11236.84
2022-11-07T16:58:40.039Z,-11235.59
2022-11-07T17:01:46.444Z,-11238.09
2022-11-07T17:04:54.160Z,-11231.34
2022-11-07T17:08:01.463Z,-11228.69
2022-11-07T17:11:07.647Z,-11219.69
2022-11-07T17:14:15.427Z,-11209.41
2022-11-07T17:17:22.808Z,-11207.16
2022-11-07T17:20:50.427Z,-11201.41
2022-11-07T17:23:59.103Z,-11204.06
2022-11-07T17:27:16.081Z,-11204.78
2022-11-07T17:30:23.511Z,-11215.88
2022-11-07T17:33:29.878Z,-11212.50
2022-11-07T17:36:38.478Z,-11202.94
2022-11-07T17:39:48.104Z,-11206.88
2022-11-07T17:42:54.556Z,-11193.94
2022-11-07T17:46:01.977Z,-11197.88
2022-11-07T17:49:09.915Z,-11195.78
2022-11-07T17:52:16.275Z,-11202.09
2022-11-07T17:55:22.351Z,-11197.19
2022-11-07T17:58:28.343Z,-11201.13
2022-11-07T18:01:38.536Z,-11196.19
2022-11-07T18:04:45.297Z,-11198.03
2022-11-07T18:07:51.349Z,-11197.03
2022-11-07T18:11:01.811Z,-11178.91
2022-11-07T18:14:08.191Z,-11167.53
2022-11-07T18:17:15.783Z,-11159.38
2022-11-07T18:20:21.989Z,-11169.63
2022-11-07T18:23:28.055Z,-11174.69
2022-11-07T18:26:34.921Z,-11173.16
2022-11-07T18:29:41.784Z,-11185.78
2022-11-07T18:32:49.615Z,-11182.97
2022-11-07T18:35:56.103Z,-11184.81
2022-11-07T18:39:06.923Z,-11185.66
2022-11-07T18:42:13.431Z,-11174.53
2022-11-07T18:45:19.895Z,-11168.94
2022-11-07T18:48:30.131Z,-11177.06
2022-11-07T18:51:36.647Z,-11170.19
2022-11-07T18:54:43.003Z,-11169.22
2022-11-07T18:57:49.307Z,-11153.03
2022-11-07T19:00:55.454Z,-11146.72
2022-11-07T19:04:06.014Z,-11151.06
2022-11-07T19:07:12.494Z,-11161.91
2022-11-07T19:10:19.812Z,-11160.63
2022-11-07T19:13:26.899Z,-11163.16
2022-11-07T19:16:33.091Z,-11166.97
2022-11-07T19:19:40.695Z,-11175.94
2022-11-07T19:22:46.926Z,-11151.06
2022-11-07T19:25:54.229Z,-11147.56
2022-11-07T19:29:02.433Z,-11150.66
2022-11-07T19:32:08.606Z,-11156.13
2022-11-07T19:35:17.526Z,-11157.69
2022-11-07T19:38:23.950Z,-11158.94
2022-11-07T19:41:30.301Z,-11165.00
2022-11-07T19:44:36.628Z,-11148.41
2022-11-07T19:47:42.829Z,-11142.09
2022-11-07T19:50:50.232Z,-11152.19
2022-11-07T19:53:59.070Z,-11155.84
2022-11-07T19:57:05.234Z,-11152.06
2022-11-07T20:00:12.619Z,-11156.00
2022-11-07T20:03:19.259Z,-11156.28
2022-11-07T20:06:30.571Z,-11152.19
2022-11-07T20:09:36.778Z,-11148.69
2022-11-07T20:12:42.633Z,-11163.31
2022-11-07T20:15:48.459Z,-11164.28
2022-11-07T20:18:54.799Z,-11164.00
2022-11-07T20:22:02.464Z,-11157.69
2022-11-07T20:25:09.493Z,-11159.66
2022-11-07T20:28:15.841Z,-11166.25
2022-11-07T20:31:23.843Z,-11163.88
2022-11-07T20:34:29.732Z,-11142.22
2022-11-07T20:37:38.347Z,-11153.88
2022-11-07T20:40:44.873Z,-11159.22
2022-11-07T20:43:54.817Z,-11160.78
2022-11-07T20:47:00.892Z,-11146.00
2022-11-07T20:50:07.944Z,-11138.56
2022-11-07T20:53:16.152Z,-11119.75
2022-11-07T20:56:24.375Z,-11134.34
2022-11-07T20:59:31.582Z,-11133.38
2022-11-07T21:02:37.654Z,-11152.34
2022-11-07T21:05:43.816Z,-11154.44
2022-11-07T21:08:52.354Z,-11158.38
2022-11-07T21:11:58.690Z,-11155.84
2022-11-07T21:15:05.989Z,-11155.16
2022-11-07T21:18:13.144Z,-11158.25
2022-11-07T21:21:22.180Z,-11152.06
2022-11-07T21:24:32.361Z,-11156.97
2022-11-07T21:27:38.323Z,-11150.09
2022-11-07T21:30:45.259Z,-11156.41
2022-11-07T21:33:51.656Z,-11154.72
2022-11-07T21:36:58.056Z,-11160.78
2022-11-07T21:40:06.194Z,-11165.69
2022-11-07T21:43:12.790Z,-11165.41
2022-11-07T21:46:21.226Z,-11149.81
2022-11-07T21:49:27.623Z,-11126.34
2022-11-07T21:52:33.845Z,-11130.13
2022-11-07T21:55:41.582Z,-11130.28
2022-11-07T21:58:49.439Z,-11144.34
2022-11-07T22:01:56.492Z,-11157.13
2022-11-07T22:05:03.306Z,-11148.97
2022-11-07T22:08:09.646Z,-11155.72
2022-11-07T22:11:17.836Z,-11138.00
2022-11-07T22:14:24.474Z,-11146.56
2022-11-07T22:17:30.960Z,-11146.00
2022-11-07T22:20:39.197Z,-11154.59
2022-11-07T22:23:45.932Z,-11150.66
2022-11-07T22:26:55.190Z,-11157.97
2022-11-07T22:30:01.532Z,-11157.13
2022-11-07T22:33:08.055Z,-11157.69
2022-11-07T22:36:14.858Z,-11157.25
2022-11-07T22:39:21.466Z,-11158.53
2022-11-07T22:42:29.121Z,-11155.44
2022-11-07T22:45:38.822Z,-11164.84
2022-11-07T22:48:45.547Z,-11164.44
2022-11-07T22:51:51.479Z,-11161.75
2022-11-07T22:54:57.644Z,-11167.53
2022-11-07T22:58:05.373Z,-11161.06
2022-11-07T23:01:16.934Z,-11140.41
2022-11-07T23:04:23.207Z,-11134.34
2022-11-07T23:07:29.438Z,-11135.63
2022-11-07T23:10:35.687Z,-11147.28
2022-11-07T23:13:44.674Z,-11153.03
2022-11-07T23:16:53.553Z,-11152.19
2022-11-07T23:19:59.555Z,-11157.69
2022-11-07T23:23:05.721Z,-11161.91
2022-11-07T23:26:13.422Z,-11157.41
2022-11-07T23:29:23.027Z,-11154.31
2022-11-07T23:32:31.552Z,-11167.53
2022-11-07T23:35:37.753Z,-11163.44
2022-11-07T23:38:44.809Z,-11162.31
2022-11-07T23:41:51.199Z,-11161.47
2022-11-07T23:45:15.916Z,-11162.19
2022-11-07T23:48:39.690Z,-11155.44
2022-11-07T23:51:47.456Z,-11156.41
2022-11-07T23:55:11.244Z,-11147.69
2022-11-07T23:58:34.851Z,-11146.44
